createdAt,value
2024-04-24T00:03:37.396Z,47.3317
2024-04-24T00:13:46.644Z,47.3322
2024-04-24T00:23:56.082Z,47.3317
2024-04-24T00:34:05.452Z,47.3331
2024-04-24T00:44:14.801Z,47.3169
2024-04-24T00:54:24.268Z,47.3156
2024-04-24T01:04:33.956Z,47.3172
2024-04-24T01:14:43.518Z,47.3294
2024-04-24T01:24:53.720Z,47.3406
2024-04-24T01:35:03.371Z,47.3392
2024-04-24T01:45:13.252Z,47.3433
2024-04-24T01:55:22.970Z,47.3486
2024-04-24T02:05:32.932Z,47.3511
2024-04-24T02:15:42.721Z,47.3475
2024-04-24T02:25:52.414Z,47.3428
2024-04-24T02:36:02.303Z,47.3397
2024-04-24T02:46:11.839Z,47.3344
2024-04-24T02:56:21.510Z,47.3344
2024-04-24T03:06:31.053Z,47.3422
2024-04-24T03:16:40.645Z,47.3444
2024-04-24T03:26:50.246Z,47.3503
2024-04-24T03:36:59.828Z,47.3525
2024-04-24T03:47:09.194Z,47.3450
2024-04-24T03:57:18.806Z,47.3489
2024-04-24T04:07:28.235Z,47.3500
2024-04-24T04:17:38.066Z,47.3572
2024-04-24T04:27:47.527Z,47.3644
2024-04-24T04:37:56.945Z,47.3603
2024-04-24T04:48:06.314Z,47.3492
2024-04-24T04:58:15.822Z,47.3461
2024-04-24T05:08:25.070Z,47.3417
2024-04-24T05:18:34.654Z,47.3444
2024-04-24T05:28:46.254Z,47.3456
2024-04-24T05:38:56.921Z,47.3431
2024-04-24T05:49:06.266Z,47.3431
2024-04-24T05:59:15.427Z,47.3450
2024-04-24T06:09:24.554Z,47.3539
2024-04-24T06:19:34.038Z,47.3600
2024-04-24T06:29:43.314Z,47.3622
2024-04-24T06:39:52.637Z,47.3628
2024-04-24T06:50:01.970Z,47.3650
2024-04-24T07:00:10.508Z,47.3758
2024-04-24T07:10:19.329Z,47.3747
2024-04-24T07:20:27.702Z,47.3739
2024-04-24T07:30:35.900Z,47.3772
2024-04-24T07:40:43.940Z,47.3892
2024-04-24T07:50:51.894Z,47.4097
2024-04-24T08:00:59.781Z,47.4128
2024-04-24T08:11:07.810Z,47.4206
2024-04-24T08:21:15.802Z,47.4228
2024-04-24T08:31:22.796Z,47.4167
2024-04-24T08:41:29.587Z,47.4244
2024-04-24T08:51:36.906Z,47.4233
2024-04-24T09:01:43.914Z,47.4211
2024-04-24T09:11:50.473Z,47.4233
2024-04-24T09:21:57.116Z,47.4308
2024-04-24T09:32:03.906Z,47.4389
2024-04-24T09:42:10.971Z,47.4319
2024-04-24T09:52:17.933Z,47.4278
2024-04-24T10:02:25.579Z,47.4306
2024-04-24T10:12:32.968Z,47.4306
2024-04-24T10:22:40.664Z,47.4314
2024-04-24T10:32:49.041Z,47.4072
2024-04-24T10:42:57.561Z,47.4228
2024-04-24T10:53:05.946Z,47.4306
2024-04-24T11:03:14.343Z,47.4356
2024-04-24T11:13:22.493Z,47.4361
2024-04-24T11:23:30.311Z,47.4386
2024-04-24T11:33:38.670Z,47.4381
2024-04-24T11:43:46.827Z,47.4375
2024-04-24T11:53:54.547Z,47.4353
2024-04-24T12:04:02.500Z,47.4369
2024-04-24T12:14:09.967Z,47.4353
2024-04-24T12:24:17.880Z,47.4456
2024-04-24T12:34:25.964Z,47.4506
2024-04-24T12:44:33.982Z,47.4511
2024-04-24T12:54:42.258Z,47.4422
2024-04-24T13:04:50.335Z,47.4444
2024-04-24T13:14:58.180Z,47.4472
2024-04-24T13:25:07.254Z,47.4456
2024-04-24T13:35:15.359Z,47.4483
2024-04-24T13:45:23.256Z,47.4528
2024-04-24T13:55:30.972Z,47.4592
2024-04-24T14:05:39.213Z,47.4625
2024-04-24T14:15:47.324Z,47.4647
2024-04-24T14:25:55.843Z,47.4672
2024-04-24T14:36:04.148Z,47.4689
2024-04-24T14:46:12.199Z,47.4675
2024-04-24T14:56:20.223Z,47.4675
2024-04-24T15:06:28.457Z,47.4669
2024-04-24T15:16:36.780Z,47.4669
2024-04-24T15:26:44.900Z,47.4661
2024-04-24T15:36:52.945Z,47.4642
2024-04-24T15:47:01.063Z,47.4622
2024-04-24T15:57:09.359Z,47.4633
2024-04-24T16:07:22.513Z,47.4633
2024-04-24T16:17:30.606Z,47.4625
2024-04-24T16:27:38.952Z,47.4625
2024-04-24T16:37:47.814Z,47.4636
2024-04-24T16:47:56.580Z,47.4633
2024-04-24T16:58:05.182Z,47.4642
2024-04-24T17:08:13.772Z,47.4619
2024-04-24T17:18:23.440Z,47.4625
2024-04-24T17:28:32.329Z,47.4619
2024-04-24T17:38:41.352Z,47.4669
2024-04-24T17:48:50.169Z,47.4656
2024-04-24T17:58:58.967Z,47.4644
2024-04-24T18:09:07.877Z,47.4664
2024-04-24T18:19:17.193Z,47.4664
2024-04-24T18:29:26.183Z,47.4658
2024-04-24T18:39:35.339Z,47.4664
2024-04-24T18:49:44.600Z,47.4639
2024-04-24T18:59:53.673Z,47.4619
2024-04-24T19:10:02.885Z,47.4617
2024-04-24T19:20:12.192Z,47.4603
2024-04-24T19:30:21.401Z,47.4533
2024-04-24T19:40:30.675Z,47.4450
2024-04-24T19:50:39.771Z,47.4389
2024-04-24T20:00:49.207Z,47.4358
2024-04-24T20:10:58.417Z,47.4328
2024-04-24T20:21:07.759Z,47.4350
2024-04-24T20:31:17.051Z,47.4347
2024-04-24T20:41:26.163Z,47.4358
2024-04-24T20:51:35.495Z,47.4342
2024-04-24T21:01:44.563Z,47.4344
2024-04-24T21:11:53.882Z,47.4375
2024-04-24T21:22:03.119Z,47.4392
2024-04-24T21:32:12.414Z,47.4361
2024-04-24T21:42:21.540Z,47.4367
2024-04-24T21:52:30.699Z,47.4381
2024-04-24T22:02:40.449Z,47.4347
2024-04-24T22:12:49.834Z,47.4333
2024-04-24T22:22:59.147Z,47.4358
2024-04-24T22:33:08.277Z,47.4361
2024-04-24T22:43:17.553Z,47.4383
2024-04-24T22:53:26.711Z,47.4372
2024-04-24T23:03:36.129Z,47.4336
2024-04-24T23:13:45.571Z,47.4319
2024-04-24T23:23:54.915Z,47.4306
2024-04-24T23:34:04.174Z,47.4250
2024-04-24T23:44:13.546Z,47.4283
2024-04-24T23:54:23.084Z,47.4194
